Time;durP1;ratioP1;P1;durP2;ratioP2;P2;SDS_P1;SDS_P2;PMS_P1;PMS_P2;Temp;Humidity;BMP_temperature;BMP_pressure;BME280_temperature;BME280_humidity;BME280_pressure;Samples;Min_cycle;Max_cycle;Signal;HPM_P1;HPM_P2
2023/03/02 00:01:08;;;;;;;150.00;74.10;;;;;;;-3.08;73.16;99641.35;221146;1283;22582;-74
2023/03/02 00:06:10;;;;;;;172.40;84.00;;;;;;;-3.17;73.43;99644.39;220989;1259;22931;-74
2023/03/02 00:11:14;;;;;;;184.30;90.40;;;;;;;-3.23;73.46;99640.95;220894;1282;25402;-73
2023/03/02 00:16:17;;;;;;;188.20;91.60;;;;;;;-3.29;73.77;99635.73;220986;1282;22566;-73
2023/03/02 00:21:20;;;;;;;182.40;87.90;;;;;;;-3.34;73.99;99632.36;220928;1281;22587;-74
2023/03/02 00:26:22;;;;;;;170.70;85.00;;;;;;;-3.37;74.54;99632.89;220874;1280;26353;-70
2023/03/02 00:31:24;;;;;;;151.80;77.20;;;;;;;-3.36;74.79;99628.17;220974;1280;22583;-70
2023/03/02 00:36:27;;;;;;;144.20;72.70;;;;;;;-3.34;75.19;99627.90;220975;1279;22535;-72
2023/03/02 00:41:33;;;;;;;143.70;70.40;;;;;;;-3.32;75.34;99628.30;220842;1280;22692;-70
2023/03/02 00:46:36;;;;;;;146.60;73.10;;;;;;;-3.29;75.45;99624.73;220887;1259;24127;-71
2023/03/02 00:51:39;;;;;;;167.50;80.10;;;;;;;-3.26;75.46;99627.45;220890;1283;22556;-70
2023/03/02 00:56:44;;;;;;;161.80;82.80;;;;;;;-3.23;75.61;99618.02;220886;1282;22676;-70
2023/03/02 01:01:56;;;;;;;180.10;86.20;;;;;;;-3.20;75.45;99614.06;221008;1275;24308;-71
2023/03/02 01:07:03;;;;;;;161.10;77.30;;;;;;;-3.15;75.01;99612.79;221125;1282;24229;-70
2023/03/02 01:12:10;;;;;;;172.60;79.40;;;;;;;-3.02;75.16;99603.29;220947;1281;22766;-70
2023/03/02 01:17:13;;;;;;;174.00;79.50;;;;;;;-2.94;74.93;99599.91;220981;1274;25629;-69
2023/03/02 01:22:17;;;;;;;156.20;77.30;;;;;;;-2.92;74.96;99590.66;220778;1278;22532;-70
2023/03/02 01:27:19;;;;;;;160.90;77.40;;;;;;;-2.90;74.69;99586.27;220943;1259;24264;-70
2023/03/02 01:32:21;;;;;;;145.80;73.00;;;;;;;-2.86;74.65;99584.47;220746;1271;22683;-71
2023/03/02 01:37:24;;;;;;;148.70;72.90;;;;;;;-2.83;74.78;99578.65;220945;1274;22648;-70
2023/03/02 01:42:26;;;;;;;152.80;71.40;;;;;;;-2.77;74.85;99567.14;220865;1280;22571;-69
2023/03/02 01:47:35;;;;;;;139.20;70.20;;;;;;;-2.74;74.71;99558.17;220898;1281;22655;-70
2023/03/02 01:52:46;;;;;;;135.40;67.20;;;;;;;-2.75;74.77;99553.88;220874;1271;24299;-70
2023/03/02 01:57:52;;;;;;;141.70;69.50;;;;;;;-2.75;74.70;99548.71;220993;1283;22604;-70
2023/03/02 02:03:07;;;;;;;146.40;71.20;;;;;;;-2.77;74.75;99538.30;221036;1283;24229;-69
2023/03/02 02:08:10;;;;;;;144.10;72.80;;;;;;;-2.82;74.51;99537.23;220760;1278;22589;-70
2023/03/02 02:13:12;;;;;;;147.50;72.70;;;;;;;-2.89;74.73;99536.91;221017;1281;22719;-69
2023/03/02 02:18:14;;;;;;;144.20;71.50;;;;;;;-2.96;74.82;99536.42;220961;1283;22574;-71
2023/03/02 02:23:28;;;;;;;145.90;71.70;;;;;;;-3.03;75.12;99533.02;221010;1283;25534;-68
2023/03/02 02:28:36;;;;;;;146.50;70.00;;;;;;;-3.09;75.33;99530.09;220961;1283;22614;-70
2023/03/02 02:33:42;;;;;;;144.90;73.90;;;;;;;-3.14;75.42;99527.63;220930;1280;22632;-70
2023/03/02 02:38:47;;;;;;;143.70;71.50;;;;;;;-3.17;75.79;99526.26;221043;1278;24031;-70
2023/03/02 02:43:51;;;;;;;144.80;71.90;;;;;;;-3.22;75.81;99524.21;220997;1281;23297;-69
2023/03/02 02:48:53;;;;;;;139.00;70.50;;;;;;;-3.25;75.97;99523.52;220958;1276;23983;-68
2023/03/02 02:53:57;;;;;;;144.10;69.90;;;;;;;-3.26;76.05;99527.77;220835;1278;25513;-71
2023/03/02 02:59:15;;;;;;;149.70;69.40;;;;;;;-3.27;76.10;99526.82;220864;1281;22764;-71
2023/03/02 03:04:20;;;;;;;150.90;74.60;;;;;;;-3.26;76.20;99522.41;220928;1281;24417;-70
2023/03/02 03:09:25;;;;;;;146.10;72.40;;;;;;;-3.28;76.07;99513.25;221078;1279;22703;-70
2023/03/02 03:14:33;;;;;;;156.30;74.50;;;;;;;-3.31;76.07;99510.64;220943;1283;25440;-69
2023/03/02 03:19:35;;;;;;;164.00;78.20;;;;;;;-3.34;76.33;99506.68;220823;1283;24380;-70
2023/03/02 03:24:38;;;;;;;150.60;75.80;;;;;;;-3.37;76.41;99509.91;220854;1281;25584;-68
2023/03/02 03:29:43;;;;;;;166.60;80.30;;;;;;;-3.39;76.58;99504.52;220993;1280;22696;-70
2023/03/02 03:34:46;;;;;;;163.10;79.60;;;;;;;-3.42;76.52;99506.44;220878;1281;26959;-70
2023/03/02 03:40:08;;;;;;;174.10;87.90;;;;;;;-3.46;76.53;99500.08;220990;1281;26728;-70
2023/03/02 03:45:11;;;;;;;173.90;84.70;;;;;;;-3.49;76.68;99496.95;220964;1283;24073;-68
2023/03/02 03:50:15;;;;;;;163.10;81.90;;;;;;;-3.53;76.67;99496.48;220963;1278;22758;-70
2023/03/02 03:55:18;;;;;;;168.50;86.00;;;;;;;-3.56;77.09;99494.20;220886;1281;23876;-69
2023/03/02 04:00:23;;;;;;;172.10;84.20;;;;;;;-3.59;76.93;99493.05;221014;1281;23935;-73
2023/03/02 04:05:32;;;;;;;173.30;85.50;;;;;;;-3.63;76.96;99489.96;220923;1283;24487;-69
2023/03/02 04:10:36;;;;;;;162.00;81.00;;;;;;;-3.67;77.23;99487.09;220945;1281;24273;-70
2023/03/02 04:15:40;;;;;;;156.70;72.40;;;;;;;-3.72;77.03;99488.39;220877;1280;22589;-69
2023/03/02 04:20:43;;;;;;;165.40;83.40;;;;;;;-3.83;77.10;99488.98;220858;1274;22669;-69
2023/03/02 04:25:46;;;;;;;183.80;89.90;;;;;;;-3.96;76.92;99493.96;220888;1281;22638;-71
2023/03/02 04:30:52;;;;;;;178.90;88.10;;;;;;;-4.02;77.17;99497.17;220806;1283;25589;-69
2023/03/02 04:35:55;;;;;;;178.30;89.30;;;;;;;-4.06;77.22;99501.88;220881;1281;24517;-70
2023/03/02 04:40:58;;;;;;;178.30;92.10;;;;;;;-4.12;77.31;99493.40;220928;1283;22611;-69
2023/03/02 04:46:03;;;;;;;178.70;86.70;;;;;;;-4.14;77.71;99486.98;220882;1279;25591;-70
2023/03/02 04:51:16;;;;;;;171.90;83.60;;;;;;;-4.16;77.89;99479.54;220848;1281;24296;-70
2023/03/02 04:56:18;;;;;;;170.00;82.70;;;;;;;-4.18;78.15;99480.30;220912;1281;25514;-70
2023/03/02 05:01:20;;;;;;;172.00;83.10;;;;;;;-4.19;78.43;99473.48;220721;1281;22604;-70
2023/03/02 05:06:25;;;;;;;167.20;82.70;;;;;;;-4.19;78.61;99477.10;220823;1281;23205;-70
2023/03/02 05:11:29;;;;;;;161.10;80.70;;;;;;;-4.19;78.62;99479.70;220846;1283;24279;-70
2023/03/02 05:16:34;;;;;;;151.60;75.30;;;;;;;-4.18;78.90;99478.45;220760;1283;22589;-69
2023/03/02 05:21:37;;;;;;;179.70;84.10;;;;;;;-4.15;78.90;99475.70;220599;1283;22615;-71
2023/03/02 05:26:40;;;;;;;154.80;77.00;;;;;;;-4.10;78.91;99479.05;220740;1281;22568;-70
2023/03/02 05:31:44;;;;;;;162.00;76.70;;;;;;;-4.05;79.23;99473.96;220967;1280;22768;-69
2023/03/02 05:36:46;;;;;;;160.20;78.20;;;;;;;-3.97;79.20;99472.83;220924;1283;22567;-69
2023/03/02 05:41:49;;;;;;;163.10;75.40;;;;;;;-3.90;78.99;99480.05;220922;1278;22590;-69
2023/03/02 05:46:51;;;;;;;143.20;72.70;;;;;;;-3.83;79.05;99483.81;220879;1276;23822;-71
2023/03/02 05:51:57;;;;;;;154.10;74.40;;;;;;;-3.78;78.84;99487.85;220821;1283;22567;-68
2023/03/02 05:56:59;;;;;;;167.90;82.40;;;;;;;-3.74;78.82;99489.20;220839;1281;23843;-70
2023/03/02 06:02:01;;;;;;;165.40;83.40;;;;;;;-3.69;79.01;99493.56;220755;1280;24236;-69
2023/03/02 06:07:04;;;;;;;142.50;72.10;;;;;;;-3.64;78.95;99502.41;220987;1283;24303;-69
2023/03/02 06:12:07;;;;;;;142.90;72.70;;;;;;;-3.63;78.43;99498.25;220989;1283;22761;-71
2023/03/02 06:17:09;;;;;;;150.10;76.50;;;;;;;-3.59;78.60;99502.35;220902;1281;24325;-70
2023/03/02 06:22:12;;;;;;;157.40;79.90;;;;;;;-3.49;78.97;99504.02;220952;1280;25564;-69
2023/03/02 06:27:15;;;;;;;152.70;76.00;;;;;;;-3.37;79.10;99505.09;220857;1283;22686;-69
2023/03/02 06:32:16;;;;;;;167.70;85.70;;;;;;;-3.25;78.86;99507.73;220809;1279;24226;-70
2023/03/02 06:37:19;;;;;;;157.10;86.40;;;;;;;-3.11;79.16;99506.09;220915;1283;22597;-70
2023/03/02 06:42:23;;;;;;;169.60;91.60;;;;;;;-2.94;78.86;99509.83;220936;1283;22670;-71
2023/03/02 06:47:24;;;;;;;169.10;87.00;;;;;;;-2.74;79.49;99517.29;220847;1281;22674;-71
2023/03/02 06:52:27;;;;;;;171.80;87.80;;;;;;;-2.54;79.27;99517.36;221043;1275;22528;-69
2023/03/02 06:57:32;;;;;;;160.80;85.80;;;;;;;-2.32;79.31;99516.25;221404;1275;22645;-69
2023/03/02 07:02:36;;;;;;;158.50;84.20;;;;;;;-2.08;79.40;99510.89;221267;1272;25604;-70
2023/03/02 07:07:38;;;;;;;154.90;82.80;;;;;;;-1.86;79.39;99511.77;221380;1269;24234;-69
2023/03/02 07:12:41;;;;;;;154.10;82.10;;;;;;;-1.61;79.11;99512.70;221554;1275;25487;-72
2023/03/02 07:17:45;;;;;;;139.90;75.90;;;;;;;-1.36;79.25;99515.45;221483;1275;22651;-70
2023/03/02 07:22:47;;;;;;;157.20;85.70;;;;;;;-1.09;78.66;99516.90;221438;1276;22527;-71
2023/03/02 07:27:50;;;;;;;135.40;74.40;;;;;;;-0.83;78.84;99515.21;221046;1267;22604;-70
2023/03/02 07:32:52;;;;;;;116.90;62.60;;;;;;;-0.55;78.43;99514.06;220906;1276;23287;-72
2023/03/02 07:37:54;;;;;;;109.90;57.60;;;;;;;-0.29;78.11;99506.66;221177;1276;22852;-74
2023/03/02 07:42:56;;;;;;;107.40;56.10;;;;;;;-0.03;77.75;99503.17;221234;1272;22624;-75
2023/03/02 07:47:59;;;;;;;107.70;55.30;;;;;;;0.24;77.42;99495.60;221284;1260;23077;-73
2023/03/02 07:59:11;;;;;;;113.20;60.90;;;;;;;0.76;76.75;99493.52;219301;1279;22550;-75
2023/03/02 08:04:13;;;;;;;89.20;49.00;;;;;;;0.93;76.26;99491.77;218660;1283;23252;-75
2023/03/02 08:09:15;;;;;;;94.20;51.20;;;;;;;1.12;76.01;99491.84;218718;1283;25294;-76
2023/03/02 08:14:18;;;;;;;90.40;52.00;;;;;;;1.29;75.71;99492.83;218819;1283;22573;-75
2023/03/02 08:19:20;;;;;;;91.60;50.60;;;;;;;1.49;75.51;99487.14;218577;1289;23829;-78
2023/03/02 08:24:23;;;;;;;94.70;53.10;;;;;;;1.72;75.25;99486.83;218690;1286;24234;-76
2023/03/02 08:29:25;;;;;;;98.80;55.60;;;;;;;1.93;75.27;99488.40;218430;1289;24359;-77
2023/03/02 08:34:27;;;;;;;96.70;54.40;;;;;;;2.16;75.14;99487.66;218607;1285;26609;-77
2023/03/02 08:39:33;;;;;;;85.30;48.90;;;;;;;2.39;74.59;99488.13;218491;1282;22737;-78
2023/03/02 08:44:35;;;;;;;89.70;49.20;;;;;;;2.64;74.13;99487.70;218372;1283;22662;-76
2023/03/02 08:49:37;;;;;;;73.30;41.00;;;;;;;2.87;73.78;99480.50;218400;1283;22563;-76
2023/03/02 08:54:40;;;;;;;72.00;41.00;;;;;;;3.10;72.90;99478.50;218751;1289;25501;-75
2023/03/02 08:59:43;;;;;;;65.60;39.60;;;;;;;3.31;72.48;99479.08;218657;1289;24259;-76
2023/03/02 09:04:45;;;;;;;64.20;35.00;;;;;;;3.52;71.85;99481.88;218457;1280;22535;-74
2023/03/02 09:09:47;;;;;;;68.90;40.10;;;;;;;3.70;71.29;99474.08;218710;1292;22590;-74
2023/03/02 09:14:49;;;;;;;77.10;46.10;;;;;;;3.84;70.84;99473.08;218781;1289;22722;-75
2023/03/02 09:19:51;;;;;;;90.70;49.20;;;;;;;4.01;70.90;99470.29;218857;1294;24281;-75
2023/03/02 09:24:53;;;;;;;79.90;44.50;;;;;;;4.21;70.91;99469.76;218949;1289;22676;-74
2023/03/02 09:29:56;;;;;;;80.90;46.20;;;;;;;4.43;70.51;99466.80;218746;1286;23179;-75
2023/03/02 09:34:58;;;;;;;75.00;43.70;;;;;;;4.64;70.25;99463.95;218968;1289;25293;-74
2023/03/02 09:40:00;;;;;;;74.20;42.30;;;;;;;4.85;69.67;99460.69;219163;1289;22559;-75
2023/03/02 09:45:14;;;;;;;69.80;42.80;;;;;;;5.05;69.16;99459.39;218786;1283;24298;-75
2023/03/02 09:50:36;;;;;;;65.80;40.90;;;;;;;5.24;68.82;99456.14;218850;1276;22564;-74
2023/03/02 09:55:38;;;;;;;67.50;40.60;;;;;;;5.42;68.24;99450.70;218859;1277;22622;-75
2023/03/02 10:00:42;;;;;;;61.90;36.90;;;;;;;5.57;67.49;99443.33;218864;1289;25242;-75
2023/03/02 10:05:54;;;;;;;52.60;32.00;;;;;;;5.72;66.73;99441.61;218863;1289;22564;-76
2023/03/02 10:11:21;;;;;;;47.50;30.70;;;;;;;5.93;66.28;99436.91;218326;1289;22545;-76
2023/03/02 10:16:43;;;;;;;52.70;28.80;;;;;;;6.16;65.60;99436.84;218639;1297;25383;-76
2023/03/02 10:21:48;;;;;;;48.00;28.80;;;;;;;6.34;65.07;99426.91;219064;1290;23370;-76
2023/03/02 10:26:57;;;;;;;47.00;27.50;;;;;;;6.49;64.55;99421.09;218804;1292;24316;-77
2023/03/02 10:32:12;;;;;;;41.50;26.10;;;;;;;6.63;63.95;99413.85;218867;1295;22548;-76
2023/03/02 10:37:18;;;;;;;42.70;24.20;;;;;;;6.73;63.32;99407.77;219045;1291;22556;-76
2023/03/02 10:42:35;;;;;;;39.00;24.90;;;;;;;6.84;62.60;99403.93;218954;1297;22550;-75
2023/03/02 10:47:37;;;;;;;36.20;22.70;;;;;;;6.96;62.10;99394.80;218474;1284;24503;-78
2023/03/02 10:52:48;;;;;;;34.70;20.60;;;;;;;7.12;61.93;99387.36;218744;1297;22706;-76
2023/03/02 10:58:20;;;;;;;31.10;20.30;;;;;;;7.24;60.68;99380.84;218628;1293;22547;-76
2023/03/02 11:08:44;;;;;;;35.40;21.30;;;;;;;7.55;60.37;99367.19;219045;1289;22539;-75
2023/03/02 11:13:46;;;;;;;36.60;21.30;;;;;;;7.69;60.05;99357.75;218900;1279;260928;-74
2023/03/02 11:19:02;;;;;;;24.90;15.30;;;;;;;7.82;59.91;99353.23;218876;1286;22559;-74
2023/03/02 11:24:15;;;;;;;33.50;21.00;;;;;;;7.94;59.14;99344.50;218986;1289;22589;-75
2023/03/02 11:29:40;;;;;;;30.90;19.30;;;;;;;8.03;58.84;99336.85;218718;1297;22615;-75
2023/03/02 11:34:50;;;;;;;24.80;14.30;;;;;;;8.15;58.54;99334.63;218969;1283;22730;-75
2023/03/02 11:40:20;;;;;;;22.60;13.90;;;;;;;8.26;57.95;99324.48;218609;1297;23965;-74
2023/03/02 11:45:27;;;;;;;21.60;13.40;;;;;;;8.38;57.45;99320.39;218674;1289;22716;-74
2023/03/02 11:50:33;;;;;;;17.80;11.90;;;;;;;8.49;57.62;99312.58;218993;1288;24263;-75
2023/03/02 11:55:42;;;;;;;21.10;12.30;;;;;;;8.62;57.30;99306.11;218654;1297;24257;-74
2023/03/02 12:00:46;;;;;;;25.70;14.70;;;;;;;8.76;56.88;99304.81;218766;1289;23980;-73
2023/03/02 12:05:51;;;;;;;21.20;13.00;;;;;;;8.87;56.48;99300.29;218944;1291;24285;-75
2023/03/02 12:11:00;;;;;;;20.50;12.40;;;;;;;8.92;56.04;99289.90;218747;1295;22552;-74
2023/03/02 12:16:20;;;;;;;22.40;13.50;;;;;;;8.99;55.76;99284.77;218936;1285;23433;-72
2023/03/02 12:21:24;;;;;;;22.80;13.50;;;;;;;9.01;55.30;99276.63;218675;1289;26513;-75
2023/03/02 12:26:35;;;;;;;23.40;14.30;;;;;;;9.04;55.95;99267.93;218710;1288;22556;-74
2023/03/02 12:31:52;;;;;;;18.40;12.90;;;;;;;9.12;55.88;99256.22;218606;1297;22673;-74
2023/03/02 12:37:00;;;;;;;26.00;13.90;;;;;;;9.18;55.28;99252.31;219020;1290;24753;-75
2023/03/02 12:42:46;;;;;;;24.70;15.00;;;;;;;9.21;54.66;99248.79;218608;1297;25283;-75
2023/03/02 12:47:55;;;;;;;24.50;14.70;;;;;;;9.26;55.36;99240.91;218985;1289;22556;-76
2023/03/02 12:53:07;;;;;;;24.90;15.00;;;;;;;9.28;55.10;99235.50;218783;1296;24306;-76
2023/03/02 12:58:19;;;;;;;21.70;14.20;;;;;;;9.31;54.89;99234.52;218653;1293;22569;-75
2023/03/02 13:03:25;;;;;;;21.90;14.30;;;;;;;9.34;55.48;99226.95;218943;1292;24218;-75
2023/03/02 13:08:28;;;;;;;24.70;14.00;;;;;;;9.35;54.56;99221.77;219107;1289;22540;-74
2023/03/02 13:13:42;;;;;;;22.10;13.40;;;;;;;9.31;54.87;99215.49;218924;1289;22644;-73
2023/03/02 13:18:45;;;;;;;23.30;13.10;;;;;;;9.31;55.14;99205.90;219051;1288;22951;-76
2023/03/02 13:23:53;;;;;;;20.50;13.40;;;;;;;9.34;55.34;99194.09;219000;1279;24292;-76
2023/03/02 13:29:01;;;;;;;21.00;11.70;;;;;;;9.37;55.45;99189.81;218315;1298;22594;-75
2023/03/02 13:34:03;;;;;;;20.40;12.20;;;;;;;9.38;55.54;99182.42;218973;1274;24151;-76
2023/03/02 13:39:16;;;;;;;21.40;13.00;;;;;;;9.41;55.48;99175.50;218545;1295;25360;-75
2023/03/02 13:44:22;;;;;;;19.10;13.20;;;;;;;9.45;55.71;99170.74;218817;1293;22648;-75
2023/03/02 13:49:36;;;;;;;29.30;16.60;;;;;;;9.47;56.12;99163.59;218804;1293;24307;-74
2023/03/02 13:54:42;;;;;;;24.10;14.90;;;;;;;9.48;55.76;99159.66;218762;1296;22576;-74
2023/03/02 13:59:45;;;;;;;27.90;17.40;;;;;;;9.45;55.54;99152.19;219175;1297;22550;-74
2023/03/02 14:04:47;;;;;;;27.60;17.10;;;;;;;9.45;55.79;99150.24;218519;1283;25325;-74
2023/03/02 14:09:49;;;;;;;29.00;17.70;;;;;;;9.45;55.78;99142.16;218521;1298;22512;-74
2023/03/02 14:14:53;;;;;;;26.50;16.50;;;;;;;9.41;55.61;99136.86;218583;1292;25443;-75
2023/03/02 14:19:55;;;;;;;25.30;15.20;;;;;;;9.33;55.69;99130.34;219281;1289;25440;-73
2023/03/02 14:24:57;;;;;;;24.00;14.10;;;;;;;9.28;55.52;99127.83;218744;1292;25265;-74
2023/03/02 14:30:00;;;;;;;22.60;13.50;;;;;;;9.24;55.78;99125.27;218815;1289;22590;-76
2023/03/02 14:35:02;;;;;;;20.20;13.50;;;;;;;9.19;55.67;99119.27;219030;1292;22575;-74
2023/03/02 14:40:13;;;;;;;21.30;13.10;;;;;;;9.16;56.26;99113.09;218847;1283;23786;-75
2023/03/02 14:45:16;;;;;;;17.70;11.50;;;;;;;9.14;56.10;99111.80;218817;1289;22550;-74
2023/03/02 14:50:18;;;;;;;17.40;11.60;;;;;;;9.07;56.64;99108.61;218900;1283;22549;-74
2023/03/02 14:55:25;;;;;;;16.90;11.30;;;;;;;9.02;56.48;99109.38;218832;1295;22690;-74
2023/03/02 15:00:27;;;;;;;15.20;10.10;;;;;;;8.97;56.84;99109.48;218990;1289;22556;-74
2023/03/02 15:05:30;;;;;;;17.60;11.50;;;;;;;8.91;56.45;99100.71;218719;1286;24296;-74
2023/03/02 15:10:32;;;;;;;21.10;12.30;;;;;;;8.81;56.43;99100.66;218958;1273;25405;-74
2023/03/02 15:15:35;;;;;;;17.20;11.00;;;;;;;8.71;56.83;99098.96;219023;1296;24309;-73
2023/03/02 15:20:37;;;;;;;19.80;11.80;;;;;;;8.62;56.84;99098.58;218836;1289;24322;-75
2023/03/02 15:25:39;;;;;;;19.60;12.10;;;;;;;8.53;57.53;99101.29;218976;1293;22608;-75
2023/03/02 15:30:41;;;;;;;18.30;11.70;;;;;;;8.41;57.49;99097.38;218856;1293;22546;-74
2023/03/02 15:35:43;;;;;;;18.10;12.20;;;;;;;8.28;57.81;99100.40;218854;1292;22566;-75
2023/03/02 15:40:45;;;;;;;19.40;12.70;;;;;;;8.11;58.00;99100.76;219049;1293;22553;-75
2023/03/02 15:45:47;;;;;;;26.00;13.50;;;;;;;7.97;58.19;99101.24;218711;1280;22572;-76
2023/03/02 15:50:58;;;;;;;21.00;13.30;;;;;;;7.82;58.99;99104.94;218637;1296;22582;-74
2023/03/02 15:56:07;;;;;;;26.10;14.70;;;;;;;7.65;59.25;99104.16;219253;1289;22539;-76
2023/03/02 16:01:10;;;;;;;24.50;15.80;;;;;;;7.46;59.61;99100.99;218887;1290;23803;-76
2023/03/02 16:06:14;;;;;;;28.00;16.50;;;;;;;7.31;60.05;99101.34;219069;1292;22688;-74
2023/03/02 16:11:21;;;;;;;28.50;17.40;;;;;;;7.16;60.08;99099.60;218665;1296;23959;-74
2023/03/02 16:16:25;;;;;;;24.30;14.20;;;;;;;6.96;60.32;99102.87;218807;1296;23952;-74
2023/03/02 16:21:27;;;;;;;21.20;14.70;;;;;;;6.76;61.23;99102.13;218777;1296;25261;-75
2023/03/02 16:26:35;;;;;;;23.60;13.90;;;;;;;6.58;61.36;99103.09;218845;1292;23253;-74
2023/03/02 16:31:38;;;;;;;20.10;13.70;;;;;;;6.38;61.66;99101.11;218823;1296;25354;-75
2023/03/02 16:36:41;;;;;;;18.80;12.90;;;;;;;6.20;61.62;99102.80;218750;1296;22630;-75
2023/03/02 16:41:43;;;;;;;23.70;15.00;;;;;;;6.02;61.86;99107.55;218631;1292;25383;-75
2023/03/02 16:46:45;;;;;;;24.20;15.40;;;;;;;5.84;62.52;99108.59;218548;1296;22549;-75
2023/03/02 16:51:47;;;;;;;24.40;15.90;;;;;;;5.66;62.64;99107.38;218696;1296;22825;-75
2023/03/02 16:56:49;;;;;;;24.80;15.30;;;;;;;5.45;62.96;99109.88;219039;1276;25416;-73
2023/03/02 17:01:51;;;;;;;36.30;21.90;;;;;;;5.26;63.51;99114.91;219047;1293;23067;-74
2023/03/02 17:06:53;;;;;;;28.60;16.60;;;;;;;5.11;64.12;99120.74;218566;1296;23789;-75
2023/03/02 17:12:03;;;;;;;28.10;17.70;;;;;;;4.98;64.71;99128.90;218960;1296;22711;-75
2023/03/02 17:17:05;;;;;;;29.80;19.20;;;;;;;4.85;65.38;99131.67;218852;1293;22547;-74
2023/03/02 17:22:07;;;;;;;33.20;21.80;;;;;;;4.71;65.92;99130.27;218670;1296;24304;-75
2023/03/02 17:27:09;;;;;;;34.90;22.80;;;;;;;4.56;66.48;99133.70;218461;1296;25297;-74
2023/03/02 17:32:26;;;;;;;39.20;25.50;;;;;;;4.42;67.26;99136.08;218354;1296;22556;-74
2023/03/02 17:37:29;;;;;;;41.30;24.60;;;;;;;4.33;67.62;99139.34;218470;1295;22675;-75
2023/03/02 17:42:31;;;;;;;39.40;24.40;;;;;;;4.24;67.83;99137.04;218775;1296;24265;-73
2023/03/02 17:47:34;;;;;;;147.00;60.20;;;;;;;4.17;68.08;99133.29;218591;1295;24288;-74
2023/03/02 17:52:36;;;;;;;95.50;45.00;;;;;;;4.14;68.38;99135.02;218864;1295;23240;-74
2023/03/02 17:57:38;;;;;;;60.00;32.60;;;;;;;4.12;68.72;99135.65;218795;1295;24409;-76
2023/03/02 18:02:41;;;;;;;52.80;29.30;;;;;;;4.12;68.96;99142.77;219009;1290;22682;-74
2023/03/02 18:07:43;;;;;;;59.10;31.20;;;;;;;4.12;68.91;99136.39;218895;1292;22671;-74
2023/03/02 18:12:46;;;;;;;70.30;36.60;;;;;;;4.10;69.11;99139.48;218736;1296;22631;-74
2023/03/02 18:17:48;;;;;;;75.00;37.90;;;;;;;4.13;69.14;99131.71;218874;1293;22610;-75
2023/03/02 18:22:50;;;;;;;74.70;36.50;;;;;;;4.08;69.12;99136.39;218524;1296;22558;-73
2023/03/02 18:27:54;;;;;;;59.90;32.60;;;;;;;3.93;68.86;99132.17;218788;1296;25500;-75
2023/03/02 18:32:57;;;;;;;64.20;33.70;;;;;;;3.79;69.36;99134.12;219093;1296;24259;-74
2023/03/02 18:37:59;;;;;;;67.60;37.10;;;;;;;3.69;69.77;99137.61;218804;1296;24227;-74
2023/03/02 18:43:01;;;;;;;71.00;40.20;;;;;;;3.63;70.04;99144.23;218937;1293;22684;-74
2023/03/02 18:48:03;;;;;;;67.70;38.30;;;;;;;3.55;70.09;99144.80;219070;1295;22662;-73
2023/03/02 18:53:07;;;;;;;77.70;41.30;;;;;;;3.40;70.08;99146.64;218759;1292;25365;-74
2023/03/02 18:58:18;;;;;;;87.50;42.70;;;;;;;3.23;70.49;99151.95;218580;1296;22687;-74
2023/03/02 19:03:21;;;;;;;80.10;42.80;;;;;;;3.07;70.73;99152.63;218895;1296;22540;-75
2023/03/02 19:08:24;;;;;;;74.00;40.60;;;;;;;2.95;71.20;99155.25;218811;1293;25434;-74
2023/03/02 19:13:26;;;;;;;83.90;42.70;;;;;;;2.93;71.71;99160.94;218368;1293;24318;-74
2023/03/02 19:18:28;;;;;;;83.30;42.40;;;;;;;2.85;71.73;99161.95;218926;1293;22692;-74
2023/03/02 19:23:31;;;;;;;89.20;47.10;;;;;;;2.72;71.78;99164.16;218916;1295;22658;-73
2023/03/02 19:28:33;;;;;;;71.00;37.90;;;;;;;2.61;71.94;99164.73;218729;1295;22543;-74
2023/03/02 19:33:37;;;;;;;80.10;40.20;;;;;;;2.53;72.31;99168.91;218846;1296;25331;-74
2023/03/02 19:38:43;;;;;;;71.20;40.20;;;;;;;2.42;72.28;99165.77;218574;1292;24415;-75
2023/03/02 19:43:45;;;;;;;75.80;40.60;;;;;;;2.39;73.10;99167.92;218932;1295;22604;-73
2023/03/02 19:48:47;;;;;;;79.90;40.20;;;;;;;2.31;72.88;99170.16;218545;1296;22609;-75
2023/03/02 19:53:49;;;;;;;92.20;47.30;;;;;;;2.22;73.23;99171.44;218566;1295;23808;-74
2023/03/02 19:58:52;;;;;;;104.60;52.20;;;;;;;2.11;73.25;99174.27;218944;1295;22662;-74
2023/03/02 20:03:56;;;;;;;100.40;52.80;;;;;;;1.98;73.53;99171.37;218591;1295;22558;-75
2023/03/02 20:09:02;;;;;;;90.40;50.20;;;;;;;1.88;73.67;99176.66;218937;1288;23083;-74
2023/03/02 20:14:05;;;;;;;103.80;54.00;;;;;;;1.81;74.21;99174.83;219002;1293;25143;-74
2023/03/02 20:19:07;;;;;;;98.70;51.90;;;;;;;1.76;74.70;99170.17;218993;1296;22558;-76
2023/03/02 20:24:10;;;;;;;99.50;51.70;;;;;;;1.72;74.54;99163.52;218954;1289;22609;-74
2023/03/02 20:29:13;;;;;;;82.70;46.10;;;;;;;1.65;74.54;99161.45;218874;1290;22762;-74
2023/03/02 20:34:15;;;;;;;76.50;43.60;;;;;;;1.59;75.00;99161.83;218900;1296;22651;-75
2023/03/02 20:39:23;;;;;;;82.10;45.30;;;;;;;1.54;75.25;99159.09;218583;1273;25471;-74
2023/03/02 20:44:25;;;;;;;88.70;46.90;;;;;;;1.49;75.09;99158.66;218946;1295;25617;-74
2023/03/02 20:49:29;;;;;;;92.60;49.70;;;;;;;1.43;75.26;99161.70;218507;1296;24234;-75
2023/03/02 20:54:35;;;;;;;96.60;51.50;;;;;;;1.36;75.37;99161.84;219183;1289;25264;-75
2023/03/02 20:59:37;;;;;;;106.30;54.30;;;;;;;1.28;75.57;99158.39;218511;1292;25257;-74
2023/03/02 21:04:40;;;;;;;94.80;53.40;;;;;;;1.21;75.52;99155.63;218971;1292;22633;-74
2023/03/02 21:09:43;;;;;;;91.70;50.20;;;;;;;1.14;75.87;99150.98;218773;1293;25434;-74
2023/03/02 21:14:46;;;;;;;104.40;56.40;;;;;;;1.06;75.75;99156.94;218734;1293;24400;-75
2023/03/02 21:19:48;;;;;;;113.60;60.30;;;;;;;0.98;76.11;99151.68;218658;1280;25417;-75
2023/03/02 21:24:51;;;;;;;104.80;56.20;;;;;;;0.90;76.04;99147.98;218711;1290;25176;-74
2023/03/02 21:30:04;;;;;;;101.70;54.80;;;;;;;0.82;76.34;99145.31;219058;1296;24262;-74
2023/03/02 21:35:07;;;;;;;95.50;52.90;;;;;;;0.76;76.48;99141.30;218544;1296;24708;-73
2023/03/02 21:40:15;;;;;;;95.80;52.40;;;;;;;0.69;76.91;99141.77;218579;1296;24256;-73
2023/03/02 21:45:17;;;;;;;93.80;50.10;;;;;;;0.62;76.52;99137.48;218762;1295;22565;-74
2023/03/02 21:50:22;;;;;;;102.00;53.80;;;;;;;0.54;76.57;99134.45;218987;1296;22672;-74
2023/03/02 21:55:26;;;;;;;99.90;55.20;;;;;;;0.46;77.22;99128.45;218864;1296;22559;-74
2023/03/02 22:00:31;;;;;;;108.90;56.60;;;;;;;0.39;76.96;99131.42;218780;1292;22545;-75
2023/03/02 22:05:34;;;;;;;104.30;55.50;;;;;;;0.34;77.53;99130.54;218409;1289;22542;-74
2023/03/02 22:10:47;;;;;;;120.00;60.10;;;;;;;0.29;77.70;99127.50;218702;1296;22629;-74
2023/03/02 22:16:09;;;;;;;117.80;60.50;;;;;;;0.21;77.51;99122.54;218821;1296;22547;-74
2023/03/02 22:21:23;;;;;;;112.00;56.40;;;;;;;0.13;77.45;99121.59;218785;1289;25379;-73
2023/03/02 22:26:26;;;;;;;107.90;57.50;;;;;;;0.05;77.99;99116.85;219030;1285;23809;-74
2023/03/02 22:31:28;;;;;;;113.50;57.80;;;;;;;-0.04;77.91;99112.11;218669;1289;22557;-74
2023/03/02 22:36:30;;;;;;;111.50;60.60;;;;;;;-0.10;78.19;99107.58;218885;1296;22554;-74
2023/03/02 22:42:05;;;;;;;121.10;61.40;;;;;;;-0.18;78.48;99112.45;218647;1295;24212;-74
2023/03/02 22:47:14;;;;;;;146.00;71.50;;;;;;;-0.25;78.62;99109.69;218812;1292;22568;-73
2023/03/02 22:52:24;;;;;;;139.10;69.10;;;;;;;-0.30;78.91;99107.45;219170;1292;24256;-74
2023/03/02 22:57:26;;;;;;;112.60;59.90;;;;;;;-0.33;79.12;99100.83;218816;1289;25353;-74
2023/03/02 23:02:28;;;;;;;110.70;59.20;;;;;;;-0.38;79.03;99102.11;219084;1289;23307;-75
2023/03/02 23:07:30;;;;;;;114.90;56.70;;;;;;;-0.42;79.14;99099.50;218770;1296;24298;-74
2023/03/02 23:12:33;;;;;;;103.80;55.90;;;;;;;-0.47;79.33;99099.18;218503;1289;244560;-73
2023/03/02 23:17:39;;;;;;;115.40;62.30;;;;;;;-0.51;79.36;99095.18;218912;1292;22646;-76
2023/03/02 23:22:42;;;;;;;112.40;59.90;;;;;;;-0.57;79.49;99084.52;219010;1296;24368;-73